Wilson Norfolk — 9HA2466 — position and weather

sailwx.info

Track history (hours):
 
Tides and Currents Weather Stations Pressure Air Temp Water Temp Dewpoint Dewpoint Depression Visibility Wind Speed Wind Dir Waves Ship Positions

Wilson Norfolk

Last reported at 2016-Aug-31 07:33 UTC. Time now 2016-Aug-31 08:00 UTC.
Position N 59°09' E 005°31'.

Length 123 m; draft 4.7 m.

Type: Ship. MMSI: 248678000.

Date/timePositionNaut miles runAvg speedWind from/ knotsBaromVisibWave heightAir tempDewpointWater temp
2016-Aug-31 07:33N 59°09' E 005°31'8 7.9
2016-Aug-31 06:33N 59°03' E 005°21'1010.0
2016-Aug-31 05:33N 58°53' E 005°20'10 9.8
2016-Aug-31 04:33N 58°44' E 005°21'10 9.7
2016-Aug-31 03:33N 58°34' E 005°20'10 9.9
2016-Aug-31 02:33N 58°24' E 005°20'10 9.5
2016-Aug-31 01:33N 58°17' E 005°33'1010.1
2016-Aug-31 00:33N 58°11' E 005°48'1010.1
2016-Aug-30 23:32N 58°04' E 006°03'10 9.9
2016-Aug-30 22:32N 57°58' E 006°17'1010.0
2016-Aug-30 21:33N 57°51' E 006°31'10 9.8
2016-Aug-30 20:32N 57°48' E 006°49'10 9.9
2016-Aug-30 19:33N 57°48' E 007°07'1511.0
2016-Aug-30 18:11N 57°46' E 007°35'812.2
2016-Aug-30 17:33N 57°46' E 007°49'1211.9
2016-Aug-30 16:33N 57°46' E 008°11'1111.2
2016-Aug-30 15:33N 57°46' E 008°32'6710.8
2016-Aug-30 09:22N 57°48' E 010°38'6 7.0
2016-Aug-30 08:32N 57°44' E 010°45'4 3.3
2016-Aug-30 07:28N 57°42' E 010°39'0 0.0
2016-Aug-30 06:22N 57°42' E 010°39'0 0.0
2016-Aug-30 05:28N 57°42' E 010°39'0 0.0
2016-Aug-30 04:28N 57°42' E 010°39'1 1.1
2016-Aug-30 03:33N 57°43' E 010°40'1110.8
2016-Aug-30 02:33N 57°53' E 010°45'1312.7
2016-Aug-30 01:33N 58°06' E 010°43'1312.7
2016-Aug-30 00:33N 58°18' E 010°41'1212.3
2016-Aug-29 23:33N 58°30' E 010°39'1211.7
2016-Aug-29 22:33N 58°42' E 010°38'1212.4
2016-Aug-29 21:33N 58°55' E 010°37'1211.6
2016-Aug-29 20:33N 59°06' E 010°44'1413.5
2016-Aug-29 19:33N 59°18' E 010°36'1313.1
2016-Aug-29 18:34N 59°32' E 010°36'1211.8
2016-Aug-29 17:33N 59°43' E 010°34'1111.0
2016-Aug-29 16:33N 59°54' E 010°42'1 0.7
2016-Aug-29 15:19N 59°54' E 010°43'0 0.0
2016-Aug-29 14:31N 59°54' E 010°43'0 0.0
2016-Aug-29 13:31N 59°54' E 010°43'0 0.0
2016-Aug-29 12:31N 59°54' E 010°43'0 0.0
2016-Aug-29 11:25N 59°54' E 010°43'0 0.0
2016-Aug-29 10:31N 59°54' E 010°43'0 0.0
2016-Aug-29 09:31N 59°54' E 010°43'0 0.0
2016-Aug-29 08:31N 59°54' E 010°43'0 0.0
2016-Aug-29 07:31N 59°54' E 010°43'0 0.0
2016-Aug-29 06:31N 59°54' E 010°43'0 0.0
2016-Aug-29 05:31N 59°54' E 010°43'0 0.0
2016-Aug-29 04:31N 59°54' E 010°43'0 0.0
2016-Aug-29 03:31N 59°54' E 010°43'3 3.4
2016-Aug-29 02:33N 59°52' E 010°38'1211.7
2016-Aug-29 01:33N 59°40' E 010°37'1211.6
2016-Aug-29 00:33N 59°29' E 010°35'1211.6
2016-Aug-28 23:33N 59°17' E 010°37'1111.4
2016-Aug-28 22:33N 59°06' E 010°35'1110.7
2016-Aug-28 21:33N 58°56' E 010°28'1211.7
2016-Aug-28 20:33N 58°47' E 010°13'1111.4
2016-Aug-28 19:33N 58°38' E 009°60'10910.8
2016-Aug-28 09:30N 57°43' E 007°03'1111.3
2016-Aug-28 08:33N 57°43' E 006°42'1111.4
2016-Aug-28 07:33N 57°48' E 006°23'1312.1
2016-Aug-28 06:28N 57°56' E 006°04'1112.1
2016-Aug-28 05:32N 58°04' E 005°48'1211.9
2016-Aug-28 04:32N 58°11' E 005°30'1212.2
2016-Aug-28 03:33N 58°19' E 005°14'1212.2
2016-Aug-28 02:33N 58°28' E 004°58'1212.3
2016-Aug-28 01:33N 58°37' E 004°41'1312.7
2016-Aug-28 00:33N 58°46' E 004°25'31510.5
2016-Aug-26 18:34N 63°30' E 009°06'1312.5
2016-Aug-26 17:34N 63°36' E 009°30'10 9.6
2016-Aug-26 16:33N 63°34' E 009°50'1313.0
2016-Aug-26 15:33N 63°29' E 010°17'1010.3
2016-Aug-26 14:33N 63°36' E 010°34'1414.1
2016-Aug-26 13:34N 63°45' E 010°58'5 0.1
2016-Aug-25 01:33N 63°50' E 011°04'1212.5
2016-Aug-25 00:33N 63°40' E 010°47'1312.5
2016-Aug-24 23:33N 63°30' E 010°29'4 3.8
2016-Aug-24 22:31N 63°27' E 010°25'0 0.0
2016-Aug-24 21:31N 63°27' E 010°25'0 0.0
2016-Aug-24 20:31N 63°27' E 010°25'0 0.0
2016-Aug-24 19:31N 63°27' E 010°25'0 0.0
2016-Aug-24 18:31N 63°27' E 010°25'0 0.0
2016-Aug-24 17:31N 63°27' E 010°25'0 0.0
2016-Aug-24 16:31N 63°27' E 010°25'0 0.0
2016-Aug-24 15:31N 63°27' E 010°25'0 0.0
2016-Aug-24 14:31N 63°27' E 010°25'0 0.0
2016-Aug-24 13:28N 63°27' E 010°25'0 0.0
2016-Aug-24 12:31N 63°27' E 010°25'0 0.0
2016-Aug-24 11:31N 63°27' E 010°25'0 0.0
2016-Aug-24 10:31N 63°27' E 010°25'0 0.0
2016-Aug-24 09:31N 63°27' E 010°25'0 0.0
2016-Aug-24 08:31N 63°27' E 010°25'0 0.0
2016-Aug-24 07:31N 63°27' E 010°25'0 0.0
2016-Aug-24 06:31N 63°27' E 010°25'0 0.0
2016-Aug-24 04:31N 63°27' E 010°25'0 0.0
2016-Aug-24 03:31N 63°27' E 010°25'0 0.0
2016-Aug-24 02:31N 63°27' E 010°25'0 0.0
2016-Aug-24 01:31N 63°27' E 010°25'0 0.0
2016-Aug-24 00:31N 63°27' E 010°25'0 0.0
2016-Aug-23 23:31N 63°27' E 010°25'0 0.0
2016-Aug-23 22:31N 63°27' E 010°25'0 0.0
2016-Aug-23 21:31N 63°27' E 010°25'0 0.0
2016-Aug-23 20:31N 63°27' E 010°25'0 0.0
2016-Aug-23 19:31N 63°27' E 010°25'0 0.0
2016-Aug-23 18:31N 63°27' E 010°25'0 0.0
2016-Aug-23 17:31N 63°27' E 010°25'0 0.0
2016-Aug-23 16:31N 63°27' E 010°25'0 0.0
2016-Aug-23 15:31N 63°27' E 010°25'0 0.0
2016-Aug-23 14:28N 63°27' E 010°25'0 0.0
2016-Aug-23 13:31N 63°27' E 010°25'0 0.0
2016-Aug-23 12:31N 63°27' E 010°25'0 0.0
2016-Aug-23 11:31N 63°27' E 010°25'0 0.0
2016-Aug-23 10:31N 63°27' E 010°25'0 0.0
2016-Aug-23 09:31N 63°27' E 010°25'0 0.0
2016-Aug-23 08:31N 63°27' E 010°25'0 0.0
2016-Aug-23 07:31N 63°27' E 010°25'0 0.0
2016-Aug-23 06:31N 63°27' E 010°25'0 0.0
2016-Aug-23 05:31N 63°27' E 010°25'0 0.0
2016-Aug-23 04:31N 63°27' E 010°25'0 0.0
2016-Aug-23 03:31N 63°27' E 010°25'0 0.0
2016-Aug-23 02:33N 63°27' E 010°25'6 6.0
2016-Aug-23 01:33N 63°28' E 010°12'1313.0
2016-Aug-23 00:33N 63°36' E 009°48'1511.6
2016-Aug-22 23:18N 63°33' E 009°16'31711.3
2016-Aug-21 19:16N 58°44' E 004°44'1013.6
2016-Aug-21 18:34N 58°37' E 004°56'1413.9
2016-Aug-21 17:32N 58°26' E 005°15'1313.3
2016-Aug-21 16:33N 58°17' E 005°33'1413.7
2016-Aug-21 15:31N 58°08' E 005°53'1313.9
2016-Aug-21 14:33N 57°59' E 006°12'1514.7
2016-Aug-21 13:33N 57°50' E 006°34'1414.3
2016-Aug-21 12:33N 57°47' E 007°00'  
Track history (hours):
 
Tides and Currents Weather Stations Pressure Air Temp Water Temp Dewpoint Dewpoint Depression Visibility Wind Speed Wind Dir Waves Ship Positions

Wilson Norfolk

Last reported at 2016-Aug-31 07:33 UTC. Time now 2016-Aug-31 08:00 UTC.
Position N 59°09' E 005°31'.

Length 123 m; draft 4.7 m.

Type: Ship. MMSI: 248678000.

Date/timePositionNaut miles runAvg speedWind from/ knotsBaromVisibWave heightAir tempDewpointWater temp
2016-Aug-31 07:33N 59°09' E 005°31'8 7.9
2016-Aug-31 06:33N 59°03' E 005°21'1010.0
2016-Aug-31 05:33N 58°53' E 005°20'10 9.8
2016-Aug-31 04:33N 58°44' E 005°21'10 9.7
2016-Aug-31 03:33N 58°34' E 005°20'10 9.9
2016-Aug-31 02:33N 58°24' E 005°20'10 9.5
2016-Aug-31 01:33N 58°17' E 005°33'1010.1
2016-Aug-31 00:33N 58°11' E 005°48'1010.1
2016-Aug-30 23:32N 58°04' E 006°03'10 9.9
2016-Aug-30 22:32N 57°58' E 006°17'1010.0
2016-Aug-30 21:33N 57°51' E 006°31'10 9.8
2016-Aug-30 20:32N 57°48' E 006°49'10 9.9
2016-Aug-30 19:33N 57°48' E 007°07'1511.0
2016-Aug-30 18:11N 57°46' E 007°35'812.2
2016-Aug-30 17:33N 57°46' E 007°49'1211.9
2016-Aug-30 16:33N 57°46' E 008°11'1111.2
2016-Aug-30 15:33N 57°46' E 008°32'6710.8
2016-Aug-30 09:22N 57°48' E 010°38'6 7.0
2016-Aug-30 08:32N 57°44' E 010°45'4 3.3
2016-Aug-30 07:28N 57°42' E 010°39'0 0.0
2016-Aug-30 06:22N 57°42' E 010°39'0 0.0
2016-Aug-30 05:28N 57°42' E 010°39'0 0.0
2016-Aug-30 04:28N 57°42' E 010°39'1 1.1
2016-Aug-30 03:33N 57°43' E 010°40'1110.8
2016-Aug-30 02:33N 57°53' E 010°45'1312.7
2016-Aug-30 01:33N 58°06' E 010°43'1312.7
2016-Aug-30 00:33N 58°18' E 010°41'1212.3
2016-Aug-29 23:33N 58°30' E 010°39'1211.7
2016-Aug-29 22:33N 58°42' E 010°38'1212.4
2016-Aug-29 21:33N 58°55' E 010°37'1211.6
2016-Aug-29 20:33N 59°06' E 010°44'1413.5
2016-Aug-29 19:33N 59°18' E 010°36'1313.1
2016-Aug-29 18:34N 59°32' E 010°36'1211.8
2016-Aug-29 17:33N 59°43' E 010°34'1111.0
2016-Aug-29 16:33N 59°54' E 010°42'1 0.7
2016-Aug-29 15:19N 59°54' E 010°43'0 0.0
2016-Aug-29 14:31N 59°54' E 010°43'0 0.0
2016-Aug-29 13:31N 59°54' E 010°43'0 0.0
2016-Aug-29 12:31N 59°54' E 010°43'0 0.0
2016-Aug-29 11:25N 59°54' E 010°43'0 0.0
2016-Aug-29 10:31N 59°54' E 010°43'0 0.0
2016-Aug-29 09:31N 59°54' E 010°43'0 0.0
2016-Aug-29 08:31N 59°54' E 010°43'0 0.0
2016-Aug-29 07:31N 59°54' E 010°43'0 0.0
2016-Aug-29 06:31N 59°54' E 010°43'0 0.0
2016-Aug-29 05:31N 59°54' E 010°43'0 0.0
2016-Aug-29 04:31N 59°54' E 010°43'0 0.0
2016-Aug-29 03:31N 59°54' E 010°43'3 3.4
2016-Aug-29 02:33N 59°52' E 010°38'1211.7
2016-Aug-29 01:33N 59°40' E 010°37'1211.6
2016-Aug-29 00:33N 59°29' E 010°35'1211.6
2016-Aug-28 23:33N 59°17' E 010°37'1111.4
2016-Aug-28 22:33N 59°06' E 010°35'1110.7
2016-Aug-28 21:33N 58°56' E 010°28'1211.7
2016-Aug-28 20:33N 58°47' E 010°13'1111.4
2016-Aug-28 19:33N 58°38' E 009°60'10910.8
2016-Aug-28 09:30N 57°43' E 007°03'1111.3
2016-Aug-28 08:33N 57°43' E 006°42'1111.4
2016-Aug-28 07:33N 57°48' E 006°23'1312.1
2016-Aug-28 06:28N 57°56' E 006°04'1112.1
2016-Aug-28 05:32N 58°04' E 005°48'1211.9
2016-Aug-28 04:32N 58°11' E 005°30'1212.2
2016-Aug-28 03:33N 58°19' E 005°14'1212.2
2016-Aug-28 02:33N 58°28' E 004°58'1212.3
2016-Aug-28 01:33N 58°37' E 004°41'1312.7
2016-Aug-28 00:33N 58°46' E 004°25'31510.5
2016-Aug-26 18:34N 63°30' E 009°06'1312.5
2016-Aug-26 17:34N 63°36' E 009°30'10 9.6
2016-Aug-26 16:33N 63°34' E 009°50'1313.0
2016-Aug-26 15:33N 63°29' E 010°17'1010.3
2016-Aug-26 14:33N 63°36' E 010°34'1414.1
2016-Aug-26 13:34N 63°45' E 010°58'5 0.1
2016-Aug-25 01:33N 63°50' E 011°04'1212.5
2016-Aug-25 00:33N 63°40' E 010°47'1312.5
2016-Aug-24 23:33N 63°30' E 010°29'4 3.8
2016-Aug-24 22:31N 63°27' E 010°25'0 0.0
2016-Aug-24 21:31N 63°27' E 010°25'0 0.0
2016-Aug-24 20:31N 63°27' E 010°25'0 0.0
2016-Aug-24 19:31N 63°27' E 010°25'0 0.0
2016-Aug-24 18:31N 63°27' E 010°25'0 0.0
2016-Aug-24 17:31N 63°27' E 010°25'0 0.0
2016-Aug-24 16:31N 63°27' E 010°25'0 0.0
2016-Aug-24 15:31N 63°27' E 010°25'0 0.0
2016-Aug-24 14:31N 63°27' E 010°25'0 0.0
2016-Aug-24 13:28N 63°27' E 010°25'0 0.0
2016-Aug-24 12:31N 63°27' E 010°25'0 0.0
2016-Aug-24 11:31N 63°27' E 010°25'0 0.0
2016-Aug-24 10:31N 63°27' E 010°25'0 0.0
2016-Aug-24 09:31N 63°27' E 010°25'0 0.0
2016-Aug-24 08:31N 63°27' E 010°25'0 0.0
2016-Aug-24 07:31N 63°27' E 010°25'0 0.0
2016-Aug-24 06:31N 63°27' E 010°25'0 0.0
2016-Aug-24 04:31N 63°27' E 010°25'0 0.0
2016-Aug-24 03:31N 63°27' E 010°25'0 0.0
2016-Aug-24 02:31N 63°27' E 010°25'0 0.0
2016-Aug-24 01:31N 63°27' E 010°25'0 0.0
2016-Aug-24 00:31N 63°27' E 010°25'0 0.0
2016-Aug-23 23:31N 63°27' E 010°25'0 0.0
2016-Aug-23 22:31N 63°27' E 010°25'0 0.0
2016-Aug-23 21:31N 63°27' E 010°25'0 0.0
2016-Aug-23 20:31N 63°27' E 010°25'0 0.0
2016-Aug-23 19:31N 63°27' E 010°25'0 0.0
2016-Aug-23 18:31N 63°27' E 010°25'0 0.0
2016-Aug-23 17:31N 63°27' E 010°25'0 0.0
2016-Aug-23 16:31N 63°27' E 010°25'0 0.0
2016-Aug-23 15:31N 63°27' E 010°25'0 0.0
2016-Aug-23 14:28N 63°27' E 010°25'0 0.0
2016-Aug-23 13:31N 63°27' E 010°25'0 0.0
2016-Aug-23 12:31N 63°27' E 010°25'0 0.0
2016-Aug-23 11:31N 63°27' E 010°25'0 0.0
2016-Aug-23 10:31N 63°27' E 010°25'0 0.0
2016-Aug-23 09:31N 63°27' E 010°25'0 0.0
2016-Aug-23 08:31N 63°27' E 010°25'0 0.0
2016-Aug-23 07:31N 63°27' E 010°25'0 0.0
2016-Aug-23 06:31N 63°27' E 010°25'0 0.0
2016-Aug-23 05:31N 63°27' E 010°25'0 0.0
2016-Aug-23 04:31N 63°27' E 010°25'0 0.0
2016-Aug-23 03:31N 63°27' E 010°25'0 0.0
2016-Aug-23 02:33N 63°27' E 010°25'6 6.0
2016-Aug-23 01:33N 63°28' E 010°12'1313.0
2016-Aug-23 00:33N 63°36' E 009°48'1511.6
2016-Aug-22 23:18N 63°33' E 009°16'31711.3
2016-Aug-21 19:16N 58°44' E 004°44'1013.6
2016-Aug-21 18:34N 58°37' E 004°56'1413.9
2016-Aug-21 17:32N 58°26' E 005°15'1313.3
2016-Aug-21 16:33N 58°17' E 005°33'1413.7
2016-Aug-21 15:31N 58°08' E 005°53'1313.9
2016-Aug-21 14:33N 57°59' E 006°12'1514.7
2016-Aug-21 13:33N 57°50' E 006°34'1414.3
2016-Aug-21 12:33N 57°47' E 007°00'  

Dump ship's entire track history